createdAt,value
2023-09-18T00:00:01.788Z,79.6
2023-09-18T00:01:01.296Z,79.5
2023-09-18T00:02:01.819Z,79.2
2023-09-18T00:03:03.892Z,79.1
2023-09-18T00:04:03.253Z,79
2023-09-18T00:05:03.817Z,78.8
2023-09-18T00:06:01.613Z,79.2
2023-09-18T00:07:03.729Z,79.4
2023-09-18T00:08:01.499Z,79.9
2023-09-18T00:09:02.013Z,79.4
2023-09-18T00:10:01.425Z,79.5
2023-09-18T00:11:02.073Z,79.5
2023-09-18T00:12:01.392Z,80.1
2023-09-18T00:13:03.480Z,80.9
2023-09-18T00:14:01.314Z,81.3
2023-09-18T00:15:03.422Z,81.2
2023-09-18T00:17:01.819Z,80.1
2023-09-18T00:18:03.849Z,80.7
2023-09-18T00:19:01.598Z,80.3
2023-09-18T00:20:03.813Z,80.2
2023-09-18T00:21:01.569Z,80.1
2023-09-18T00:22:02.177Z,80
2023-09-18T00:23:03.213Z,79.9
2023-09-18T00:24:01.975Z,80
2023-09-18T00:25:01.399Z,80
2023-09-18T00:26:03.509Z,80.2
2023-09-18T00:27:01.352Z,80.4
2023-09-18T00:28:01.773Z,79.9
2023-09-18T00:29:02.299Z,80
2023-09-18T00:30:01.712Z,79.9
2023-09-18T00:31:03.829Z,79.8
2023-09-18T00:32:01.726Z,79.9
2023-09-18T00:33:03.732Z,79.7
2023-09-18T00:34:03.143Z,80.4
2023-09-18T00:35:03.665Z,81.9
2023-09-18T00:36:01.452Z,82.3
2023-09-18T00:37:01.910Z,82.3
2023-09-18T00:38:01.387Z,82.3
2023-09-18T00:39:03.473Z,82.3
2023-09-18T00:40:01.275Z,82.4
2023-09-18T00:41:01.769Z,82.5
2023-09-18T00:42:02.223Z,81.9
2023-09-18T00:43:01.681Z,81.5
2023-09-18T00:44:02.179Z,81.2
2023-09-18T00:45:03.224Z,81.3
2023-09-18T00:46:03.658Z,81.6
2023-09-18T00:47:03.155Z,81.9
2023-09-18T00:48:01.988Z,82.3
2023-09-18T00:49:01.432Z,82.6
2023-09-18T00:50:03.556Z,81.9
2023-09-18T00:51:03.000Z,81.2
2023-09-18T00:52:03.443Z,80.9
2023-09-18T00:54:03.395Z,80.7
2023-09-18T00:55:02.181Z,81.2
2023-09-18T00:56:01.789Z,80.9
2023-09-18T00:57:02.143Z,80.6
2023-09-18T00:58:03.302Z,81
2023-09-18T00:59:02.087Z,81.4
2023-09-18T01:00:01.545Z,81.5
2023-09-18T01:01:02.042Z,81.6
2023-09-18T01:02:01.579Z,82.5
2023-09-18T01:03:02.105Z,82.1
2023-09-18T01:04:01.574Z,82.2
2023-09-18T01:05:03.606Z,82.8
2023-09-18T01:06:02.988Z,83
2023-09-18T01:07:01.858Z,83.1
2023-09-18T01:08:01.294Z,83
2023-09-18T01:09:03.426Z,83.1
2023-09-18T01:10:02.260Z,83
2023-09-18T01:11:01.767Z,82.9
2023-09-18T01:12:16.205Z,83.3
2023-09-18T01:13:01.638Z,83.4
2023-09-18T01:14:03.746Z,83.4
2023-09-18T01:15:03.209Z,83.1
2023-09-18T01:16:02.080Z,83.3
2023-09-18T01:17:03.391Z,83.4
2023-09-18T01:18:02.006Z,83.6
2023-09-18T01:19:02.116Z,83.5
2023-09-18T01:20:01.913Z,83.5
2023-09-18T01:21:02.991Z,83.3
2023-09-18T01:22:01.805Z,83.3
2023-09-18T01:23:01.328Z,83.2
2023-09-18T01:24:01.811Z,83.1
2023-09-18T01:25:02.247Z,83.1
2023-09-18T01:26:01.707Z,83.3
2023-09-18T01:27:02.173Z,83.4
2023-09-18T01:28:01.607Z,83.4
2023-09-18T01:29:03.796Z,83.1
2023-09-18T01:30:01.568Z,82.8
2023-09-18T01:31:03.723Z,83.3
2023-09-18T01:32:01.515Z,83.5
2023-09-18T01:33:02.015Z,83
2023-09-18T01:34:01.465Z,82.7
2023-09-18T01:35:02.001Z,83.2
2023-09-18T01:36:01.391Z,83.3
2023-09-18T01:37:01.910Z,82.8
2023-09-18T01:38:01.384Z,82.6
2023-09-18T01:39:03.483Z,83.1
2023-09-18T01:40:01.354Z,83.5
2023-09-18T01:41:01.809Z,83.7
2023-09-18T01:43:01.716Z,83.8
2023-09-18T01:44:02.254Z,83.8
2023-09-18T01:45:03.303Z,83.8
2023-09-18T01:46:02.099Z,83.7
2023-09-18T01:47:03.294Z,83.7
2023-09-18T01:48:02.057Z,83
2023-09-18T01:49:03.116Z,83.1
2023-09-18T01:50:01.954Z,83
2023-09-18T01:51:01.445Z,83.5
2023-09-18T01:52:01.877Z,83.6
2023-09-18T01:53:03.097Z,83.3
2023-09-18T01:54:01.820Z,83.8
2023-09-18T01:55:01.326Z,83.9
2023-09-18T01:56:01.801Z,83.9
2023-09-18T01:57:02.230Z,83.1
2023-09-18T01:58:03.377Z,82.8
2023-09-18T01:59:02.177Z,82.6
2023-09-18T02:00:01.650Z,82.5
2023-09-18T02:01:02.166Z,82.5
2023-09-18T02:02:01.580Z,82.5
2023-09-18T02:03:43.941Z,82.9
2023-09-18T02:04:15.830Z,83.5
2023-09-18T02:05:10.032Z,83.9
2023-09-18T02:06:01.472Z,83.9
2023-09-18T02:07:02.093Z,84
2023-09-18T02:08:03.151Z,84.1
2023-09-18T02:09:03.451Z,83.8
2023-09-18T02:10:02.255Z,83.6
2023-09-18T02:11:01.705Z,83.9
2023-09-18T02:12:02.194Z,84.3
2023-09-18T02:13:01.627Z,83.9
2023-09-18T02:14:02.144Z,84.2
2023-09-18T02:15:01.545Z,84
2023-09-18T02:16:02.033Z,84.1
2023-09-18T02:17:01.544Z,84.4
2023-09-18T02:18:02.022Z,84.5
2023-09-18T02:19:01.440Z,84.5
2023-09-18T02:20:02.117Z,84.6
2023-09-18T02:21:01.419Z,84.6
2023-09-18T02:22:01.906Z,84.7
2023-09-18T02:23:01.360Z,84.8
2023-09-18T02:24:01.791Z,84.8
2023-09-18T02:25:01.306Z,84.6
2023-09-18T02:26:01.773Z,84.3
2023-09-18T02:27:02.248Z,84.6
2023-09-18T02:28:01.663Z,84.6
2023-09-18T02:29:03.775Z,84.7
2023-09-18T02:30:03.245Z,84.7
2023-09-18T02:31:03.654Z,84.7
2023-09-18T02:32:01.641Z,84.4
2023-09-18T02:33:03.704Z,84.5
2023-09-18T02:34:01.422Z,84.5
2023-09-18T02:35:03.724Z,84.8
2023-09-18T02:36:03.033Z,85
2023-09-18T02:37:03.489Z,84.9
2023-09-18T02:38:01.313Z,84.9
2023-09-18T02:39:01.728Z,84.9
2023-09-18T02:40:03.845Z,84.9
2023-09-18T02:41:01.642Z,84.7
2023-09-18T02:42:02.091Z,84.7
2023-09-18T02:43:01.599Z,84
2023-09-18T02:44:03.682Z,83.9
2023-09-18T02:45:03.107Z,83.4
2023-09-18T02:46:01.947Z,83.5
2023-09-18T02:47:01.453Z,83.9
2023-09-18T02:48:01.928Z,83.4
2023-09-18T02:49:01.324Z,83.2
2023-09-18T02:50:01.845Z,83.2
2023-09-18T02:51:03.585Z,83.4
2023-09-18T02:52:01.780Z,83.5
2023-09-18T02:54:03.316Z,84
2023-09-18T02:55:02.176Z,83.6
2023-09-18T02:56:03.416Z,84
2023-09-18T02:57:03.721Z,84
2023-09-18T02:58:01.577Z,84
2023-09-18T02:59:03.766Z,84.6
2023-09-18T03:00:03.176Z,84.7
2023-09-18T03:01:02.011Z,84.9
2023-09-18T03:02:03.203Z,84.7
2023-09-18T03:03:02.082Z,84.8
2023-09-18T03:04:01.453Z,84.9
2023-09-18T03:05:03.556Z,84.9
2023-09-18T03:06:01.311Z,85
2023-09-18T03:07:03.518Z,85.2
2023-09-18T03:08:02.265Z,85.1
2023-09-18T03:09:03.378Z,84.9
2023-09-18T03:10:02.197Z,85.2
2023-09-18T03:11:03.402Z,85.2
2023-09-18T03:12:02.115Z,84.7
2023-09-18T03:13:01.629Z,84.8
2023-09-18T03:14:02.065Z,84.8
2023-09-18T03:15:03.209Z,84.5
2023-09-18T03:16:02.017Z,84.6
2023-09-18T03:17:03.122Z,84.6
2023-09-18T03:18:02.538Z,84.6
2023-09-18T03:19:02.983Z,84.8
2023-09-18T03:20:03.427Z,84.8
2023-09-18T03:21:02.223Z,84.6
2023-09-18T03:22:01.679Z,84.1
2023-09-18T03:23:02.204Z,84.3
2023-09-18T03:24:03.207Z,84.1
2023-09-18T03:25:02.073Z,84.1
2023-09-18T03:26:01.551Z,84.3
2023-09-18T03:27:02.051Z,83.9
2023-09-18T03:28:01.498Z,84.6
2023-09-18T03:29:02.174Z,84.5
2023-09-18T03:30:01.388Z,84.9
2023-09-18T03:31:01.882Z,84.9
2023-09-18T03:32:03.058Z,84.6
2023-09-18T03:33:01.886Z,84.3
2023-09-18T03:34:01.273Z,84.7
2023-09-18T03:35:01.832Z,84.6
2023-09-18T03:36:02.200Z,84.8
2023-09-18T03:37:03.399Z,84.9
2023-09-18T03:38:02.219Z,84.8
2023-09-18T03:39:03.309Z,85.1
2023-09-18T03:40:02.089Z,85.3
2023-09-18T03:41:01.659Z,85.5
2023-09-18T03:42:01.998Z,85.3
2023-09-18T03:43:01.481Z,85.4
2023-09-18T03:44:03.533Z,85.2
2023-09-18T03:45:01.423Z,85.2
2023-09-18T03:46:03.520Z,85.6
2023-09-18T03:47:03.075Z,85.7
2023-09-18T03:48:03.544Z,85.7
2023-09-18T03:49:02.219Z,85.6
2023-09-18T03:50:01.697Z,85.4
2023-09-18T03:51:02.233Z,85.1
2023-09-18T03:52:01.574Z,84.9
2023-09-18T03:53:02.245Z,84.9
2023-09-18T03:54:01.515Z,84.6
2023-09-18T03:55:03.722Z,84.8
2023-09-18T03:56:01.573Z,84.9
2023-09-18T03:57:01.928Z,84.8
2023-09-18T03:58:01.318Z,84.5
2023-09-18T03:59:01.849Z,84.3
2023-09-18T04:01:03.453Z,84
2023-09-18T04:02:02.171Z,84
2023-09-18T04:03:01.709Z,84.1
2023-09-18T04:04:04.205Z,84.4
2023-09-18T04:05:03.333Z,84.6
2023-09-18T04:06:03.367Z,84.7
2023-09-18T04:07:03.237Z,84.7
2023-09-18T04:08:03.528Z,84.7
2023-09-18T04:09:01.407Z,84.6
2023-09-18T04:10:01.848Z,85.5
2023-09-18T04:11:01.356Z,85.7
2023-09-18T04:12:03.430Z,85.8
2023-09-18T04:13:01.270Z,85.8
2023-09-18T04:14:01.714Z,85.7
2023-09-18T04:15:02.209Z,85.9
2023-09-18T04:16:01.646Z,85.8
2023-09-18T04:17:02.152Z,85.5
2023-09-18T04:18:01.679Z,85.7
2023-09-18T04:19:02.012Z,85.8
2023-09-18T04:20:01.504Z,85.7
2023-09-18T04:21:02.007Z,85.6
2023-09-18T04:22:01.423Z,85.7
2023-09-18T04:23:01.970Z,85.8
2023-09-18T04:24:01.358Z,85.8
2023-09-18T04:25:03.515Z,85.7
2023-09-18T04:26:01.311Z,85.8
2023-09-18T04:27:01.784Z,85.9
2023-09-18T04:28:01.280Z,85.9
2023-09-18T04:29:03.461Z,85.9
2023-09-18T04:30:03.805Z,85.5
2023-09-18T04:31:03.396Z,85.4
2023-09-18T04:32:02.240Z,85.3
2023-09-18T04:33:03.430Z,85.8
2023-09-18T04:34:02.148Z,85.7
2023-09-18T04:35:01.499Z,85.8
2023-09-18T04:36:01.994Z,85.7
2023-09-18T04:37:01.467Z,85.7
2023-09-18T04:38:01.959Z,85.6
2023-09-18T04:39:01.399Z,85.1
2023-09-18T04:40:03.462Z,85.3
2023-09-18T04:41:03.047Z,85.5
2023-09-18T04:42:03.368Z,85
2023-09-18T04:43:02.949Z,85
2023-09-18T04:44:01.688Z,85.4
2023-09-18T04:45:02.199Z,86
2023-09-18T04:46:05.741Z,86.1
2023-09-18T04:47:02.144Z,86
2023-09-18T04:48:01.559Z,85.6
2023-09-18T04:49:03.600Z,85.9
2023-09-18T04:50:01.464Z,86.2
2023-09-18T04:51:03.588Z,86
2023-09-18T04:52:01.404Z,86
2023-09-18T04:53:01.889Z,86.2
2023-09-18T04:54:02.950Z,86.3
2023-09-18T04:55:03.440Z,86.3
2023-09-18T04:56:02.254Z,86.3
2023-09-18T04:57:01.735Z,86.2
2023-09-18T04:58:02.176Z,86.2
2023-09-18T04:59:01.625Z,85.6
2023-09-18T05:00:16.244Z,85.6
2023-09-18T05:01:03.189Z,86
2023-09-18T05:02:02.002Z,85.8
2023-09-18T05:03:03.348Z,86.1
2023-09-18T05:04:01.986Z,86.4
2023-09-18T05:05:01.447Z,86.4
2023-09-18T05:06:01.851Z,86.5
2023-09-18T05:07:02.924Z,86.3
2023-09-18T05:08:01.721Z,85.9
2023-09-18T05:09:03.817Z,86
2023-09-18T05:10:01.618Z,85.9
2023-09-18T05:11:02.131Z,85.9
2023-09-18T05:12:01.556Z,85.9
2023-09-18T05:13:03.721Z,85.6
2023-09-18T05:14:03.283Z,85.1
2023-09-18T05:15:03.596Z,85.2
2023-09-18T05:16:01.552Z,85.5
2023-09-18T05:17:01.920Z,85.5
2023-09-18T05:18:01.571Z,85.5
2023-09-18T05:19:03.429Z,85.8
2023-09-18T05:20:02.240Z,86.1
2023-09-18T05:21:01.689Z,86.4
2023-09-18T05:22:03.794Z,86.4
2023-09-18T05:23:03.298Z,86.3
2023-09-18T05:24:02.033Z,86.7
2023-09-18T05:25:01.491Z,86.7
2023-09-18T05:26:01.936Z,86.6
2023-09-18T05:27:01.432Z,86.6
2023-09-18T05:28:01.874Z,86.6
2023-09-18T05:29:02.986Z,86.5
2023-09-18T05:30:01.820Z,86.5
2023-09-18T05:31:01.372Z,86.5
2023-09-18T05:32:03.502Z,86.4
2023-09-18T05:33:02.309Z,86.4
2023-09-18T05:34:01.618Z,86.6
2023-09-18T05:35:02.132Z,86.3
2023-09-18T05:36:01.625Z,85.8
2023-09-18T05:37:02.078Z,86.3
2023-09-18T05:38:03.244Z,86.6
2023-09-18T05:39:03.607Z,86.2
2023-09-18T05:40:03.040Z,85.8
2023-09-18T05:41:03.539Z,85.6
2023-09-18T05:42:02.963Z,85.8
2023-09-18T05:43:01.840Z,85.6
2023-09-18T05:44:04.230Z,86.3
2023-09-18T05:45:03.379Z,86.1
2023-09-18T05:46:02.217Z,85.7
2023-09-18T05:47:01.616Z,85.5
2023-09-18T05:48:02.264Z,86.1
2023-09-18T05:49:01.561Z,86.4
2023-09-18T05:50:02.070Z,86.7
2023-09-18T05:51:03.113Z,86.7
2023-09-18T05:52:03.541Z,86.7
2023-09-18T05:53:01.536Z,86.9
2023-09-18T05:54:01.877Z,86.7
2023-09-18T05:55:05.166Z,86.7
2023-09-18T05:56:01.805Z,86.7
2023-09-18T05:57:03.005Z,87.2
2023-09-18T05:58:04.024Z,87.2
2023-09-18T05:59:02.207Z,87.1
2023-09-18T06:00:01.662Z,87.1
2023-09-18T06:01:03.789Z,87.2
2023-09-18T06:02:01.583Z,87.3
2023-09-18T06:03:03.820Z,87.4
2023-09-18T06:04:03.271Z,87.2
2023-09-18T06:05:02.049Z,87
2023-09-18T06:06:03.115Z,87.1
2023-09-18T06:07:01.945Z,87
2023-09-18T06:08:01.461Z,86.9
2023-09-18T06:09:03.556Z,87
2023-09-18T06:10:01.448Z,87.1
2023-09-18T06:11:01.809Z,87.3
2023-09-18T06:12:01.289Z,87.5
2023-09-18T06:13:01.762Z,87.6
2023-09-18T06:14:02.182Z,87.6
2023-09-18T06:15:03.395Z,87.5
2023-09-18T06:16:02.119Z,87.5
2023-09-18T06:17:01.663Z,87.6
2023-09-18T06:18:02.182Z,87.4
2023-09-18T06:19:01.588Z,87.3
2023-09-18T06:20:01.968Z,87.4
2023-09-18T06:21:03.081Z,87.2
2023-09-18T06:22:03.513Z,87.2
2023-09-18T06:23:01.406Z,87.1
2023-09-18T06:24:03.547Z,87
2023-09-18T06:25:01.331Z,87.1
2023-09-18T06:26:01.763Z,87.2
2023-09-18T06:27:02.253Z,87.1
2023-09-18T06:28:01.729Z,87.2
2023-09-18T06:29:02.461Z,87.2
2023-09-18T06:30:01.639Z,87.6
2023-09-18T06:31:03.834Z,87.5
2023-09-18T06:32:01.593Z,87.5
2023-09-18T06:33:03.728Z,87.4
2023-09-18T06:34:01.456Z,87.4
2023-09-18T06:35:01.976Z,87.3
2023-09-18T06:36:01.407Z,87.4
2023-09-18T06:37:01.861Z,87.2
2023-09-18T06:38:01.346Z,87.3
2023-09-18T06:39:01.823Z,87.3
2023-09-18T06:41:01.729Z,86.9
2023-09-18T06:42:02.170Z,86.6
2023-09-18T06:43:01.610Z,86.5
2023-09-18T06:44:03.758Z,86.3
2023-09-18T06:45:01.570Z,86.1
2023-09-18T06:46:02.030Z,85.9
2023-09-18T06:47:01.535Z,85.5
2023-09-18T06:48:02.099Z,85.6
2023-09-18T06:49:01.427Z,85.8
2023-09-18T06:50:03.480Z,85.5
2023-09-18T06:51:02.963Z,85.3
2023-09-18T06:52:06.488Z,84.6
2023-09-18T06:53:01.276Z,84.6
2023-09-18T06:54:01.773Z,84.7
2023-09-18T06:55:03.875Z,84.4
2023-09-18T06:56:03.349Z,84.6
2023-09-18T06:57:02.138Z,84.7
2023-09-18T06:58:01.622Z,85
2023-09-18T06:59:03.716Z,84.6
2023-09-18T07:00:03.183Z,84.2
2023-09-18T07:01:02.025Z,83.7
2023-09-18T07:02:01.557Z,83.3
2023-09-18T07:03:03.826Z,83.4
2023-09-18T07:04:01.609Z,84.1
2023-09-18T07:05:03.610Z,83.7
2023-09-18T07:07:01.733Z,83.5
2023-09-18T07:08:03.845Z,83.4
2023-09-18T07:09:01.651Z,83.7
2023-09-18T07:10:05.167Z,83.2
2023-09-18T07:11:01.618Z,82.7
2023-09-18T07:12:02.015Z,82.1
2023-09-18T07:13:03.142Z,81.9
2023-09-18T07:14:01.938Z,81.6
2023-09-18T07:15:03.063Z,81.7
2023-09-18T07:16:01.904Z,82.7
2023-09-18T07:17:01.352Z,82.2
2023-09-18T07:18:01.947Z,81.3
2023-09-18T07:20:01.834Z,80.4
2023-09-18T07:21:04.008Z,80.5
2023-09-18T07:22:01.665Z,80.3
2023-09-18T07:23:02.110Z,80.5
2023-09-18T07:24:01.547Z,80.3
2023-09-18T07:25:03.697Z,79.7
2023-09-18T07:26:01.464Z,79.7
2023-09-18T07:27:01.979Z,79.1
2023-09-18T07:28:01.396Z,79.1
2023-09-18T07:29:02.643Z,79.9
2023-09-18T07:30:01.333Z,80.4
2023-09-18T07:31:03.427Z,80.6
2023-09-18T07:32:01.339Z,80.2
2023-09-18T07:33:01.821Z,79.1
2023-09-18T07:34:02.187Z,78.9
2023-09-18T07:35:01.650Z,78.9
2023-09-18T07:36:02.086Z,77.8
2023-09-18T07:37:01.597Z,78.1
2023-09-18T07:38:02.046Z,78.4
2023-09-18T07:39:01.509Z,77.2
2023-09-18T07:40:03.703Z,77.3
2023-09-18T07:41:01.445Z,77.9
2023-09-18T07:42:01.876Z,78.9
2023-09-18T07:43:01.393Z,78.5
2023-09-18T07:44:01.866Z,77.8
2023-09-18T07:45:02.932Z,77.6
2023-09-18T07:46:03.499Z,76.5
2023-09-18T07:47:02.232Z,76.3
2023-09-18T07:48:01.796Z,76.7
2023-09-18T07:49:02.149Z,75.5
2023-09-18T07:50:01.570Z,77.3
2023-09-18T07:51:02.047Z,76.7
2023-09-18T07:52:01.493Z,75.9
2023-09-18T07:53:02.020Z,76.2
2023-09-18T07:54:01.408Z,76
2023-09-18T07:55:03.514Z,74.9
2023-09-18T07:56:02.443Z,75.3
2023-09-18T07:57:01.800Z,74.8
2023-09-18T07:58:01.248Z,74.3
2023-09-18T07:59:01.754Z,73.5
2023-09-18T08:00:02.192Z,72.8
2023-09-18T08:01:01.699Z,73.2
2023-09-18T08:02:03.850Z,73.9
2023-09-18T08:03:01.783Z,74
2023-09-18T08:04:02.294Z,73.9
2023-09-18T08:05:01.486Z,74
2023-09-18T08:06:03.536Z,73.8
2023-09-18T08:07:01.421Z,73.9
2023-09-18T08:08:03.506Z,73.4
2023-09-18T08:09:02.112Z,72.9
2023-09-18T08:10:01.887Z,72.9
2023-09-18T08:11:03.817Z,73.3
2023-09-18T08:12:01.726Z,73.1
2023-09-18T08:13:03.858Z,72.8
2023-09-18T08:14:03.264Z,72.6
2023-09-18T08:15:02.152Z,72.5
2023-09-18T08:16:01.604Z,72.5
2023-09-18T08:17:02.035Z,72.5
2023-09-18T08:18:01.579Z,72.6
2023-09-18T08:19:02.007Z,72.6
2023-09-18T08:20:01.410Z,72.3
2023-09-18T08:21:01.890Z,71.8
2023-09-18T08:22:05.070Z,72.4
2023-09-18T08:23:03.440Z,72.3
2023-09-18T08:24:03.986Z,72.4
2023-09-18T08:25:03.366Z,72.7
2023-09-18T08:26:02.153Z,72.9
2023-09-18T08:27:03.260Z,72.6
2023-09-18T08:28:02.086Z,72.5
2023-09-18T08:29:03.147Z,72.2
2023-09-18T08:30:02.015Z,72.2
2023-09-18T08:31:01.444Z,72.3
2023-09-18T08:32:01.918Z,72.5
2023-09-18T08:33:03.197Z,72.4
2023-09-18T08:34:01.808Z,72.2
2023-09-18T08:35:02.990Z,71.8
2023-09-18T08:36:01.760Z,72.3
2023-09-18T08:37:02.241Z,72.1
2023-09-18T08:38:01.731Z,71.7
2023-09-18T08:39:03.926Z,71.8
2023-09-18T08:40:01.694Z,71.5
2023-09-18T08:41:03.067Z,71.8
2023-09-18T08:42:01.868Z,71.6
2023-09-18T08:43:03.006Z,71.7
2023-09-18T08:44:01.772Z,71.8
2023-09-18T08:45:02.261Z,72.1
2023-09-18T08:46:01.759Z,71.8
2023-09-18T08:47:02.217Z,71.7
2023-09-18T08:48:03.324Z,71.8
2023-09-18T08:49:02.104Z,71.9
2023-09-18T08:50:03.251Z,72
2023-09-18T08:51:03.672Z,70.9
2023-09-18T08:52:01.569Z,70.9
2023-09-18T08:53:05.957Z,70.9
2023-09-18T08:54:03.189Z,71.1
2023-09-18T08:55:01.965Z,71.1
2023-09-18T08:56:01.440Z,70.8
2023-09-18T08:57:01.927Z,70.6
2023-09-18T08:58:01.607Z,70.1
2023-09-18T08:59:03.470Z,70
2023-09-18T09:00:02.978Z,70.2
2023-09-18T09:01:01.819Z,70.5
2023-09-18T09:03:01.786Z,69.5
2023-09-18T09:04:03.815Z,69.6
2023-09-18T09:05:03.411Z,69.7
2023-09-18T09:06:02.219Z,69.2
2023-09-18T09:07:03.249Z,68.6
2023-09-18T09:08:02.037Z,68.1
2023-09-18T09:09:01.491Z,68.5
2023-09-18T09:10:01.971Z,68.7
2023-09-18T09:11:03.090Z,68.8
2023-09-18T09:12:01.939Z,68.4
2023-09-18T09:13:03.041Z,69
2023-09-18T09:14:01.799Z,68.8
2023-09-18T09:15:01.368Z,67.3
2023-09-18T09:16:01.734Z,67.9
2023-09-18T09:17:03.870Z,67.3
2023-09-18T09:18:03.399Z,66.4
2023-09-18T09:19:02.118Z,66.4
2023-09-18T09:20:01.543Z,66.5
2023-09-18T09:21:03.690Z,66
2023-09-18T09:22:01.439Z,66.9
2023-09-18T09:23:03.594Z,67.4
2023-09-18T09:24:05.400Z,66.7
2023-09-18T09:25:03.485Z,66.9
2023-09-18T09:26:01.255Z,67.1
2023-09-18T09:27:01.710Z,66.7
2023-09-18T09:28:02.205Z,66.8
2023-09-18T09:29:03.313Z,67
2023-09-18T09:30:02.119Z,66.7
2023-09-18T09:31:03.246Z,67.4
2023-09-18T09:32:01.997Z,67.5
2023-09-18T09:33:03.227Z,67.7
2023-09-18T09:34:01.948Z,67.5
2023-09-18T09:35:03.043Z,67.3
2023-09-18T09:36:03.512Z,67.5
2023-09-18T09:37:02.945Z,67.4
2023-09-18T09:38:01.793Z,67.6
2023-09-18T09:39:02.354Z,67.8
2023-09-18T09:40:03.328Z,68.2
2023-09-18T09:41:02.161Z,68.1
2023-09-18T09:42:01.612Z,68.6
2023-09-18T09:43:02.134Z,68.9
2023-09-18T09:44:03.177Z,68.9
2023-09-18T09:45:03.665Z,68.4
2023-09-18T09:46:03.092Z,68.7
2023-09-18T09:47:01.977Z,68.5
2023-09-18T09:48:01.503Z,68.4
2023-09-18T09:49:01.906Z,67.8
2023-09-18T09:50:01.412Z,68.1
2023-09-18T09:51:03.473Z,68
2023-09-18T09:52:01.264Z,67.8
2023-09-18T09:53:01.749Z,67.7
2023-09-18T09:54:02.291Z,67.5
2023-09-18T09:55:01.718Z,67.4
2023-09-18T09:56:02.150Z,67.6
2023-09-18T09:57:01.620Z,67.4
2023-09-18T09:58:02.079Z,67.2
2023-09-18T09:59:01.528Z,67.8
2023-09-18T10:00:03.646Z,67.2
2023-09-18T10:01:02.180Z,67.3
2023-09-18T10:02:04.587Z,67.6
2023-09-18T10:03:01.472Z,67.9
2023-09-18T10:04:01.835Z,68.1
2023-09-18T10:05:02.947Z,67.2
2023-09-18T10:06:03.405Z,67.1
2023-09-18T10:07:03.863Z,67.7
2023-09-18T10:08:01.650Z,68
2023-09-18T10:09:03.815Z,68.1
2023-09-18T10:10:01.769Z,67.1
2023-09-18T10:11:03.673Z,67
2023-09-18T10:12:01.464Z,65.4
2023-09-18T10:13:03.589Z,65.9
2023-09-18T10:14:01.370Z,65.9
2023-09-18T10:15:03.518Z,65.5
2023-09-18T10:16:01.259Z,65
2023-09-18T10:17:03.369Z,65.3
2023-09-18T10:18:02.303Z,65.8
2023-09-18T10:19:01.673Z,65.8
2023-09-18T10:20:02.129Z,66.2
2023-09-18T10:21:01.595Z,65.3
2023-09-18T10:22:02.054Z,64.1
2023-09-18T10:23:03.226Z,65.1
2023-09-18T10:24:02.030Z,64.8
2023-09-18T10:25:01.480Z,64.9
2023-09-18T10:26:01.902Z,65.3
2023-09-18T10:27:01.372Z,65.6
2023-09-18T10:28:01.874Z,66.1
2023-09-18T10:29:01.367Z,65.8
2023-09-18T10:30:03.405Z,65.9
2023-09-18T10:32:01.734Z,66.1
2023-09-18T10:33:02.290Z,66
2023-09-18T10:34:03.269Z,65.8
2023-09-18T10:35:03.792Z,64.9
2023-09-18T10:36:01.556Z,65.3
2023-09-18T10:37:02.000Z,65.3
2023-09-18T10:38:03.089Z,65.3
2023-09-18T10:39:01.977Z,65
2023-09-18T10:40:03.084Z,64.9
2023-09-18T10:41:04.154Z,65.3
2023-09-18T10:42:03.377Z,65.6
2023-09-18T10:43:02.249Z,65.5
2023-09-18T10:44:01.675Z,64.8
2023-09-18T10:45:03.856Z,65.1
2023-09-18T10:46:01.639Z,64.9
2023-09-18T10:47:03.762Z,65
2023-09-18T10:48:03.272Z,65.4
2023-09-18T10:49:02.002Z,65.8
2023-09-18T10:50:03.106Z,65.3
2023-09-18T10:51:01.871Z,65.3
2023-09-18T10:52:02.994Z,65.1
2023-09-18T10:53:03.473Z,63.8
2023-09-18T10:54:02.928Z,64.6
2023-09-18T10:55:03.336Z,64.4
2023-09-18T10:56:02.191Z,63.9
2023-09-18T10:57:01.706Z,64.6
2023-09-18T10:58:03.798Z,64.6
2023-09-18T10:59:01.655Z,64.9
2023-09-18T11:00:02.145Z,63.6
2023-09-18T11:01:01.501Z,63.9
2023-09-18T11:02:02.020Z,64.3
2023-09-18T11:03:03.253Z,64.7
2023-09-18T11:04:02.007Z,64.5
2023-09-18T11:05:02.966Z,64.5
2023-09-18T11:06:01.808Z,64.3
2023-09-18T11:07:01.268Z,64
2023-09-18T11:08:01.718Z,64.4
2023-09-18T11:09:03.889Z,65
2023-09-18T11:10:01.650Z,64.4
2023-09-18T11:11:02.138Z,64.6
2023-09-18T11:12:01.571Z,64.7
2023-09-18T11:13:02.047Z,64.5
2023-09-18T11:14:03.162Z,64.2
2023-09-18T11:15:02.218Z,64.1
2023-09-18T11:16:01.443Z,63.9
2023-09-18T11:17:01.919Z,64.2
2023-09-18T11:18:03.042Z,63.6
2023-09-18T11:19:01.874Z,63.8
2023-09-18T11:20:01.252Z,63.5
2023-09-18T11:21:02.385Z,64.4
2023-09-18T11:22:02.209Z,63.8
2023-09-18T11:23:01.694Z,64
2023-09-18T11:24:02.099Z,64.4
2023-09-18T11:25:15.199Z,64.2
2023-09-18T11:26:03.726Z,64.7
2023-09-18T11:27:01.534Z,64.3
2023-09-18T11:28:03.617Z,63.9
2023-09-18T11:29:03.088Z,64
2023-09-18T11:30:03.546Z,63.6
2023-09-18T11:31:01.384Z,64.5
2023-09-18T11:32:05.675Z,63.8
2023-09-18T11:33:02.995Z,63.9
2023-09-18T11:34:01.688Z,64
2023-09-18T11:35:02.210Z,64.3
2023-09-18T11:36:01.621Z,63.9
2023-09-18T11:37:03.750Z,64.1
2023-09-18T11:38:01.550Z,63.7
2023-09-18T11:39:02.080Z,63.4
2023-09-18T11:40:03.127Z,63.6
2023-09-18T11:41:03.655Z,64.2
2023-09-18T11:42:01.398Z,64.4
2023-09-18T11:43:01.892Z,65.9
2023-09-18T11:44:02.971Z,64.6
2023-09-18T11:45:01.888Z,64.4
2023-09-18T11:46:02.927Z,64.4
2023-09-18T11:47:03.412Z,64.6
2023-09-18T11:48:03.926Z,64.6
2023-09-18T11:49:03.315Z,64.8
2023-09-18T11:50:03.326Z,64
2023-09-18T11:51:03.237Z,64.2
2023-09-18T11:52:02.035Z,64.2
2023-09-18T11:53:03.190Z,64.7
2023-09-18T11:54:02.015Z,64.9
2023-09-18T11:55:01.439Z,64.8
2023-09-18T11:56:01.878Z,64.3
2023-09-18T11:57:01.378Z,64.5
2023-09-18T11:58:01.868Z,64.1
2023-09-18T11:59:02.985Z,65.6
2023-09-18T12:00:01.870Z,64.8
2023-09-18T12:01:03.906Z,65.9
2023-09-18T12:02:01.663Z,65.9
2023-09-18T12:03:03.902Z,64.8
2023-09-18T12:04:01.615Z,65.1
2023-09-18T12:05:02.395Z,64.4
2023-09-18T12:06:01.610Z,64.7
2023-09-18T12:07:03.704Z,65.1
2023-09-18T12:08:01.513Z,65.2
2023-09-18T12:09:03.640Z,64.6
2023-09-18T12:10:01.443Z,64.9
2023-09-18T12:11:03.590Z,65.6
2023-09-18T12:12:01.356Z,65.3
2023-09-18T12:13:01.889Z,65.2
2023-09-18T12:14:01.280Z,65.6
2023-09-18T12:15:01.858Z,65.6
2023-09-18T12:16:02.262Z,64.2
2023-09-18T12:17:01.707Z,64.9
2023-09-18T12:18:02.300Z,65.7
2023-09-18T12:19:01.611Z,66.6
2023-09-18T12:20:02.232Z,65.7
2023-09-18T12:21:01.565Z,64.4
2023-09-18T12:22:02.006Z,64.8
2023-09-18T12:23:01.477Z,66.3
2023-09-18T12:24:01.949Z,64.4
2023-09-18T12:25:01.500Z,64
2023-09-18T12:26:01.838Z,63.9
2023-09-18T12:27:02.927Z,63.5
2023-09-18T12:28:01.770Z,63.5
2023-09-18T12:29:03.883Z,64.5
2023-09-18T12:30:01.672Z,64.9
2023-09-18T12:31:07.294Z,64.1
2023-09-18T12:32:01.639Z,66.4
2023-09-18T12:33:02.185Z,65.3
2023-09-18T12:34:01.538Z,64.4
2023-09-18T12:35:02.103Z,64.4
2023-09-18T12:36:03.069Z,66.5
2023-09-18T12:37:01.916Z,65.6
2023-09-18T12:38:02.992Z,64.8
2023-09-18T12:39:03.506Z,65.4
2023-09-18T12:40:01.317Z,64.2
2023-09-18T12:41:02.396Z,63.5
2023-09-18T12:42:02.210Z,63.3
2023-09-18T12:43:03.277Z,63.1
2023-09-18T12:44:02.091Z,64.1
2023-09-18T12:45:01.597Z,65.5
2023-09-18T12:46:03.673Z,63.8
2023-09-18T12:47:03.138Z,63.9
2023-09-18T12:48:03.659Z,64.4
2023-09-18T12:49:03.028Z,65
2023-09-18T12:50:01.876Z,64.2
2023-09-18T12:51:01.363Z,64.8
2023-09-18T12:52:01.823Z,64.4
2023-09-18T12:53:02.282Z,64.5
2023-09-18T12:54:03.358Z,64.4
2023-09-18T12:55:02.446Z,64.8
2023-09-18T12:56:01.645Z,66.2
2023-09-18T12:57:03.772Z,65.2
2023-09-18T12:58:03.215Z,64.6
2023-09-18T12:59:13.320Z,65.4
2023-09-18T13:00:01.603Z,65.1
2023-09-18T13:01:03.567Z,64.7
2023-09-18T13:02:01.423Z,64.8
2023-09-18T13:03:01.950Z,64.7
2023-09-18T13:04:01.508Z,65.1
2023-09-18T13:05:01.805Z,65.8
2023-09-18T13:06:01.281Z,65.7
2023-09-18T13:07:01.725Z,65.1
2023-09-18T13:08:03.863Z,65.9
2023-09-18T13:09:01.677Z,65.7
2023-09-18T13:10:02.161Z,65.7
2023-09-18T13:11:03.281Z,65.2
2023-09-18T13:12:02.092Z,65.6
2023-09-18T13:13:03.179Z,66.2
2023-09-18T13:14:01.962Z,66.1
2023-09-18T13:15:03.064Z,66.2
2023-09-18T13:16:01.973Z,66.3
2023-09-18T13:17:01.375Z,66.5
2023-09-18T13:18:01.997Z,66.3
2023-09-18T13:20:03.375Z,67.2
2023-09-18T13:21:03.928Z,66.9
2023-09-18T13:22:03.337Z,66.8
2023-09-18T13:23:03.817Z,66.6
2023-09-18T13:24:01.639Z,67
2023-09-18T13:25:03.695Z,66.8
2023-09-18T13:26:01.546Z,66.8
2023-09-18T13:27:02.061Z,67.7
2023-09-18T13:28:03.143Z,68.5
2023-09-18T13:29:03.535Z,69.1
2023-09-18T13:30:01.344Z,69.6
2023-09-18T13:31:03.428Z,69.2
2023-09-18T13:32:01.282Z,70.2
2023-09-18T13:33:03.529Z,70.1